Time;durP1;ratioP1;P1;durP2;ratioP2;P2;SDS_P1;SDS_P2;PMS_P1;PMS_P2;Temp;Humidity;BMP_temperature;BMP_pressure;BME280_temperature;BME280_humidity;BME280_pressure;Samples;Min_cycle;Max_cycle;Signal;HPM_P1;HPM_P2
2024/01/14 00:00:09;;;;;;;4.57;1.97;;;;;;;-17.61;57.63;99729.16;4900745;29;20036;-66
2024/01/14 00:02:41;;;;;;;;;;;;;;;-17.62;57.06;99727.38;4932580;29;20046;-66
2024/01/14 00:05:11;;;;;;;5.13;1.88;;;;;;;-18.05;57.18;99668.38;4886936;29;19918;-66
2024/01/14 00:07:37;;;;;;;4.87;2.90;;;;;;;-17.74;56.49;99726.13;4917194;29;20131;-69
2024/01/14 00:10:04;;;;;;;7.30;2.43;;;;;;;-17.97;57.07;99672.47;4933851;29;20070;-68
2024/01/14 00:12:32;;;;;;;6.87;2.90;;;;;;;-18.45;57.16;99574.91;4918473;29;20047;-68
2024/01/14 00:15:01;;;;;;;8.07;2.47;;;;;;;-17.79;56.96;99683.41;4918195;29;20039;-69
2024/01/14 00:17:44;;;;;;;5.93;2.30;;;;;;;-17.79;56.15;99692.47;4916151;29;20468;-69
2024/01/14 00:20:12;;;;;;;8.23;2.87;;;;;;;-17.81;56.84;99679.00;4886169;29;20122;-69
2024/01/14 00:22:42;;;;;;;9.40;3.10;;;;;;;-18.03;56.30;99662.84;4902932;29;20047;-68
2024/01/14 00:25:11;;;;;;;8.20;3.23;;;;;;;-18.34;56.70;99589.28;4883346;29;20044;-69
2024/01/14 00:27:40;;;;;;;8.77;2.83;;;;;;;-17.79;56.82;99672.59;4919084;29;20074;-69
2024/01/14 00:30:07;;;;;;;5.60;2.90;;;;;;;-17.88;56.73;99653.53;4902912;29;20112;-68
2024/01/14 00:32:33;;;;;;;10.33;3.87;;;;;;;-17.71;57.20;99664.28;4912873;29;20135;-69
2024/01/14 00:35:07;;;;;;;4.10;2.27;;;;;;;-17.78;56.77;99632.09;4898924;29;20054;-70
2024/01/14 00:37:34;;;;;;;6.03;2.90;;;;;;;-17.77;56.79;99632.22;4885063;29;20080;-69
2024/01/14 00:40:07;;;;;;;8.07;2.73;;;;;;;-17.53;56.41;99666.81;4917486;29;20055;-69
2024/01/14 00:42:34;;;;;;;7.70;2.25;;;;;;;-17.51;57.41;99675.31;4913022;29;20048;-70
2024/01/14 00:45:01;;;;;;;3.60;2.00;;;;;;;-17.73;56.70;99628.41;4895279;29;20142;-66
2024/01/14 00:47:30;;;;;;;7.60;2.20;;;;;;;-17.82;55.50;99610.13;4913177;29;20525;-67
2024/01/14 00:50:00;;;;;;;5.93;2.43;;;;;;;-17.73;57.23;99636.78;4910902;29;20051;-67
2024/01/14 00:52:30;;;;;;;6.47;2.40;;;;;;;-17.74;56.15;99649.03;4915010;29;20043;-71
2024/01/14 00:55:37;;;;;;;9.37;3.40;;;;;;;-17.94;55.94;99645.44;4915159;29;20035;-68
2024/01/14 00:58:24;;;;;;;6.10;2.97;;;;;;;-18.07;56.86;99622.63;4903890;29;20040;-70
2024/01/14 01:01:01;;;;;;;7.97;2.83;;;;;;;-18.18;56.33;99587.59;4914217;29;20072;-69
2024/01/14 01:03:27;;;;;;;8.00;2.07;;;;;;;-18.07;56.73;99610.19;4929204;29;20055;-68
2024/01/14 01:05:59;;;;;;;8.05;2.42;;;;;;;-18.04;57.15;99603.03;4910534;29;20044;-69
2024/01/14 01:08:26;;;;;;;7.23;3.20;;;;;;;-18.08;56.50;99593.50;4913032;29;20301;-68
2024/01/14 01:11:10;;;;;;;5.47;2.70;;;;;;;-17.96;56.90;99611.22;4914739;29;20051;-68
2024/01/14 01:13:41;;;;;;;6.43;2.33;;;;;;;-18.00;56.90;99580.25;4911353;29;20126;-68
2024/01/14 01:16:11;;;;;;;5.67;2.33;;;;;;;-17.70;57.06;99617.91;4899039;29;20050;-69
2024/01/14 01:18:40;;;;;;;9.93;2.37;;;;;;;-17.99;56.20;99594.44;4901694;29;20041;-68
2024/01/14 01:21:06;;;;;;;4.73;2.10;;;;;;;-17.81;56.49;99594.47;4898815;29;20111;-68
2024/01/14 01:23:32;;;;;;;7.90;2.47;;;;;;;-17.67;56.75;99614.13;4898339;29;20091;-68
2024/01/14 01:25:58;;;;;;;5.70;2.43;;;;;;;-17.61;56.40;99598.91;4912865;29;20075;-69
2024/01/14 01:28:24;;;;;;;4.77;2.30;;;;;;;-17.72;55.85;99587.91;4916577;29;20048;-68
2024/01/14 01:30:50;;;;;;;3.43;2.57;;;;;;;-17.67;56.36;99593.34;4895060;29;20139;-69
2024/01/14 01:33:17;;;;;;;5.23;1.97;;;;;;;-17.92;56.01;99556.13;4914945;29;20128;-68
2024/01/14 01:35:43;;;;;;;9.70;3.77;;;;;;;-17.74;56.97;99589.34;4912333;29;20044;-70
2024/01/14 01:38:09;;;;;;;9.03;3.03;;;;;;;-17.85;56.65;99568.41;4899605;29;20053;-74
2024/01/14 01:40:38;;;;;;;5.43;2.67;;;;;;;-17.93;56.69;99550.25;4886290;29;20059;-69
2024/01/14 01:43:07;;;;;;;8.63;3.03;;;;;;;-17.72;56.97;99590.41;4894100;29;20064;-68
2024/01/14 01:45:34;;;;;;;3.37;2.10;;;;;;;-17.64;56.67;99576.22;4898609;29;20091;-67
2024/01/14 01:48:00;;;;;;;7.20;3.33;;;;;;;-17.69;56.73;99555.88;4893652;29;20040;-69
2024/01/14 01:50:29;;;;;;;10.70;3.70;;;;;;;-17.71;57.12;99554.84;4902866;29;20051;-65
2024/01/14 01:52:56;;;;;;;4.77;2.63;;;;;;;-17.65;57.37;99545.53;4913463;29;20104;-67
2024/01/14 01:55:22;;;;;;;7.33;2.83;;;;;;;-17.75;56.37;99537.88;4921677;29;20044;-69
2024/01/14 01:57:49;;;;;;;6.80;3.33;;;;;;;-17.62;56.89;99542.44;4900887;29;20500;-69
2024/01/14 02:00:16;;;;;;;8.50;2.47;;;;;;;-17.47;56.99;99551.41;4899463;29;20426;-70
2024/01/14 02:02:45;;;;;;;6.30;2.77;;;;;;;-17.38;56.72;99548.03;4917695;29;20044;-69
2024/01/14 02:05:14;;;;;;;5.83;2.17;;;;;;;-17.38;56.76;99548.94;4919735;29;20426;-69
2024/01/14 02:07:40;;;;;;;5.53;2.80;;;;;;;-17.53;56.14;99498.56;4913779;29;20048;-68
2024/01/14 02:10:10;;;;;;;8.30;3.13;;;;;;;-17.42;56.78;99512.91;4899653;29;20048;-67
2024/01/14 02:12:36;;;;;;;6.13;2.67;;;;;;;-17.68;56.79;99447.38;4903803;29;20048;-68
2024/01/14 02:15:08;;;;;;;5.73;3.17;;;;;;;-17.16;56.06;99526.13;4917058;29;20075;-67
2024/01/14 02:17:35;;;;;;;8.10;2.93;;;;;;;-17.21;56.59;99518.22;4917710;29;20048;-67
2024/01/14 02:20:11;;;;;;;7.93;2.57;;;;;;;-17.22;57.05;99518.06;4902160;29;20052;-67
2024/01/14 02:22:41;;;;;;;7.50;2.40;;;;;;;-17.41;56.77;99486.44;4906492;29;20044;-68
2024/01/14 02:25:07;;;;;;;3.53;2.07;;;;;;;-17.15;57.18;99522.91;4909711;29;20485;-69
2024/01/14 02:27:37;;;;;;;7.00;2.60;;;;;;;-17.36;56.91;99471.94;4917458;29;20052;-69
2024/01/14 02:30:05;;;;;;;3.77;2.47;;;;;;;-17.12;56.40;99499.16;4889459;29;20470;-69
2024/01/14 02:32:41;;;;;;;5.70;2.30;;;;;;;-17.43;57.31;99448.09;4911382;29;20072;-69
2024/01/14 02:35:08;;;;;;;3.43;1.63;;;;;;;-17.07;56.89;99499.59;4914414;29;20180;-67
2024/01/14 02:37:43;;;;;;;2.63;1.73;;;;;;;-17.09;57.05;99485.25;4909508;29;20100;-68
2024/01/14 02:40:12;;;;;;;7.17;1.90;;;;;;;-17.07;57.46;99487.16;4887291;29;20044;-69
2024/01/14 02:42:46;;;;;;;3.80;2.60;;;;;;;-17.22;57.40;99456.72;4889440;29;20052;-70
2024/01/14 02:45:14;;;;;;;9.83;3.03;;;;;;;-16.95;57.70;99486.56;4914139;29;20048;-68
2024/01/14 02:47:41;;;;;;;5.13;1.80;;;;;;;-17.20;57.44;99431.97;4904238;29;20780;-68
2024/01/14 02:50:09;;;;;;;5.27;2.40;;;;;;;-17.18;56.98;99428.03;4921765;29;20067;-68
2024/01/14 02:52:35;;;;;;;4.63;2.27;;;;;;;-17.21;56.93;99445.16;4917034;29;20208;-68
2024/01/14 02:55:10;;;;;;;4.80;1.77;;;;;;;-17.36;57.04;99457.91;4916171;29;20484;-69
2024/01/14 02:57:39;;;;;;;7.23;1.77;;;;;;;-17.42;57.42;99439.91;4915649;29;20048;-68
2024/01/14 03:00:07;;;;;;;2.93;2.07;;;;;;;-17.35;56.66;99466.25;4917324;29;20062;-66
2024/01/14 03:02:38;;;;;;;8.40;2.03;;;;;;;-17.73;56.99;99412.09;4917150;29;20510;-67
2024/01/14 03:05:05;;;;;;;4.27;2.37;;;;;;;-17.96;56.80;99410.75;4915714;29;20535;-70
2024/01/14 03:07:34;;;;;;;7.03;1.83;;;;;;;-17.78;57.19;99448.09;4886212;29;20051;-68
2024/01/14 03:10:00;;;;;;;7.50;1.87;;;;;;;-17.83;56.89;99429.34;4919151;29;20044;-69
2024/01/14 03:12:38;;;;;;;9.10;2.37;;;;;;;-17.58;57.91;99454.97;4884254;29;20044;-69
2024/01/14 03:15:04;;;;;;;6.20;1.77;;;;;;;-18.03;56.61;99401.88;4913542;29;20044;-70
2024/01/14 03:17:36;;;;;;;4.43;1.80;;;;;;;-18.29;57.29;99333.84;4885261;29;20428;-69
2024/01/14 03:20:03;;;;;;;4.80;2.13;;;;;;;-17.66;57.48;99460.84;4931976;29;20059;-69
2024/01/14 03:22:32;;;;;;;6.53;2.63;;;;;;;-18.44;56.72;99339.09;4912958;29;20036;-70
2024/01/14 03:24:57;;;;;;;4.57;1.40;;;;;;;-18.26;57.12;99359.00;4918993;29;20152;-68
2024/01/14 03:27:27;;;;;;;3.07;1.53;;;;;;;-17.84;57.53;99415.16;4916211;29;20048;-68
2024/01/14 03:29:53;;;;;;;7.73;2.53;;;;;;;-17.90;57.29;99403.03;4916070;29;20515;-67
2024/01/14 03:32:22;;;;;;;5.27;2.43;;;;;;;-17.73;57.58;99414.56;4912210;29;20052;-68
2024/01/14 03:34:57;;;;;;;7.87;1.93;;;;;;;-17.87;56.86;99391.75;4886612;29;20144;-68
2024/01/14 03:37:32;;;;;;;9.13;1.80;;;;;;;-18.19;57.28;99347.31;4900621;29;20733;-67
2024/01/14 03:39:58;;;;;;;3.53;1.97;;;;;;;-18.43;57.93;99313.53;4913261;29;20531;-67
2024/01/14 03:42:28;;;;;;;6.70;1.60;;;;;;;-18.10;57.57;99362.25;4901689;29;20052;-67
2024/01/14 03:44:54;;;;;;;9.63;2.37;;;;;;;-18.12;57.55;99365.31;4915552;29;20064;-67
2024/01/14 03:47:23;;;;;;;4.00;1.80;;;;;;;-17.94;57.43;99401.84;4911779;29;20048;-67
2024/01/14 03:49:49;;;;;;;5.83;2.27;;;;;;;-17.99;57.68;99404.66;4916111;29;20087;-65
2024/01/14 03:52:15;;;;;;;3.50;1.87;;;;;;;-18.24;57.58;99338.56;4912026;29;20566;-66
2024/01/14 03:54:58;;;;;;;7.10;2.83;;;;;;;-17.98;57.53;99389.00;4912273;29;20082;-66
2024/01/14 03:57:25;;;;;;;6.10;2.23;;;;;;;-18.10;57.11;99388.69;4914209;29;20051;-65
2024/01/14 03:59:52;;;;;;;2.73;1.80;;;;;;;-18.39;57.21;99345.41;4910636;29;20062;-66
2024/01/14 04:02:18;;;;;;;6.97;2.00;;;;;;;-18.17;58.41;99369.84;4913439;29;20044;-65
2024/01/14 04:04:52;;;;;;;2.53;1.70;;;;;;;-18.56;57.81;99316.44;4912378;29;20419;-65
2024/01/14 04:07:18;;;;;;;4.47;2.03;;;;;;;-18.32;57.71;99354.31;4900386;29;20044;-66
2024/01/14 04:09:45;;;;;;;7.07;2.07;;;;;;;-18.13;58.26;99364.44;4899075;29;20083;-68
2024/01/14 04:12:11;;;;;;;5.17;2.40;;;;;;;-18.21;58.69;99343.84;4905726;29;20410;-68
2024/01/14 04:14:41;;;;;;;6.90;2.33;;;;;;;-17.93;58.50;99366.31;4915954;29;20052;-65
2024/01/14 04:17:08;;;;;;;4.90;2.47;;;;;;;-18.10;58.42;99334.94;4900056;29;20510;-66
2024/01/14 04:19:36;;;;;;;5.00;1.63;;;;;;;-18.17;58.01;99337.53;4928448;29;20112;-67
2024/01/14 04:22:04;;;;;;;4.60;2.13;;;;;;;-18.21;58.24;99323.97;4902112;29;20044;-67
2024/01/14 04:24:31;;;;;;;4.67;1.80;;;;;;;-18.08;57.44;99330.09;4900565;29;20054;-68
2024/01/14 04:26:58;;;;;;;6.13;2.03;;;;;;;-18.13;57.56;99343.66;4901996;29;20427;-66
2024/01/14 04:29:24;;;;;;;6.67;2.50;;;;;;;-18.44;57.50;99294.41;4913156;29;20099;-67
2024/01/14 04:31:52;;;;;;;6.00;2.53;;;;;;;-18.08;58.23;99349.97;4911577;29;20056;-66
2024/01/14 04:34:21;;;;;;;5.20;2.10;;;;;;;-18.58;57.76;99273.19;4898517;29;20063;-66
2024/01/14 04:36:53;;;;;;;4.40;2.05;;;;;;;-18.11;58.79;99332.28;4898249;29;20048;-65
2024/01/14 04:39:24;;;;;;;6.27;2.53;;;;;;;-18.08;58.54;99333.44;4911444;29;20040;-66
2024/01/14 04:41:53;;;;;;;5.63;2.40;;;;;;;-18.04;58.38;99347.06;4910185;29;20040;-66
2024/01/14 04:44:19;;;;;;;4.43;2.20;;;;;;;-18.24;58.12;99312.81;4912395;29;20068;-68
2024/01/14 04:46:45;;;;;;;3.63;1.80;;;;;;;-18.13;58.38;99309.78;4913490;29;20041;-65
2024/01/14 04:49:21;;;;;;;7.53;2.28;;;;;;;-18.01;58.26;99294.25;4898002;29;20091;-67
2024/01/14 04:51:47;;;;;;;3.65;2.05;;;;;;;-18.09;57.61;99294.41;4911576;29;20100;-69
2024/01/14 04:54:16;;;;;;;4.00;1.90;;;;;;;-18.00;57.93;99306.84;4916045;29;20177;-68
2024/01/14 04:56:43;;;;;;;6.60;2.63;;;;;;;-17.98;58.25;99312.81;4913049;29;20048;-69
2024/01/14 04:59:29;;;;;;;6.07;2.63;;;;;;;-18.14;58.03;99300.56;4915896;29;20078;-68
2024/01/14 05:01:58;;;;;;;3.67;2.10;;;;;;;-18.16;57.99;99301.13;4910810;29;20111;-71
2024/01/14 05:04:28;;;;;;;6.23;2.30;;;;;;;-18.09;57.98;99319.25;4915891;29;20044;-69
2024/01/14 05:07:02;;;;;;;8.70;2.97;;;;;;;-18.25;57.83;99316.94;4897840;29;20068;-70
2024/01/14 05:09:36;;;;;;;7.87;3.33;;;;;;;-18.54;57.75;99274.38;4915997;29;20508;-69
2024/01/14 05:12:08;;;;;;;7.53;3.10;;;;;;;-18.40;58.03;99303.00;4891661;29;20044;-69
2024/01/14 05:14:36;;;;;;;6.23;2.47;;;;;;;-18.32;58.19;99312.09;4915840;29;20080;-66
2024/01/14 05:17:12;;;;;;;14.63;2.80;;;;;;;-18.44;58.11;99299.38;4914846;29;20052;-68
2024/01/14 05:19:47;;;;;;;9.17;3.13;;;;;;;-18.78;58.58;99221.63;4899306;29;20458;-66
2024/01/14 05:22:18;;;;;;;4.73;2.50;;;;;;;-18.15;58.73;99312.81;4899254;29;20040;-66
2024/01/14 05:24:50;;;;;;;6.50;3.40;;;;;;;-18.28;57.89;99293.38;4913475;29;20397;-66
2024/01/14 05:27:21;;;;;;;13.23;4.13;;;;;;;-18.43;57.57;99272.94;4906619;29;20055;-65
2024/01/14 05:29:52;;;;;;;20.27;4.30;;;;;;;-18.40;58.43;99285.63;4887187;29;20040;-66
2024/01/14 05:32:18;;;;;;;8.73;3.30;;;;;;;-18.40;58.62;99281.56;4915571;29;20041;-66
2024/01/14 05:34:48;;;;;;;5.60;2.83;;;;;;;-18.34;58.04;99304.50;4915972;29;20039;-67
2024/01/14 05:37:15;;;;;;;6.63;3.40;;;;;;;-18.29;58.33;99307.44;4910842;29;20063;-67
2024/01/14 05:39:43;;;;;;;11.60;3.17;;;;;;;-18.58;58.14;99269.84;4918155;29;20040;-67
2024/01/14 05:42:09;;;;;;;6.57;3.20;;;;;;;-18.57;57.92;99265.03;4919805;29;20163;-67
2024/01/14 05:44:42;;;;;;;9.23;3.47;;;;;;;-18.60;57.93;99252.31;4921990;29;20044;-67
2024/01/14 05:49:57;;;;;;;7.63;3.93;;;;;;;-18.19;57.99;99302.59;4919999;29;20047;-66
2024/01/14 05:52:44;;;;;;;5.87;3.03;;;;;;;-18.09;58.06;99308.44;4913346;29;20059;-67
2024/01/14 05:55:16;;;;;;;4.47;2.63;;;;;;;-18.55;58.71;99199.00;4922753;29;20044;-68
2024/01/14 05:57:46;;;;;;;5.43;2.73;;;;;;;-17.92;58.24;99293.50;4936918;29;20044;-70
2024/01/14 06:00:38;;;;;;;6.33;3.07;;;;;;;-18.12;59.49;99221.19;4923008;29;20040;-71
2024/01/14 06:03:19;;;;;;;;;;;;;;;;;;;;;
2024/01/14 06:05:48;;;;;;;7.20;2.97;;;;;;;-17.84;58.53;99242.00;4921900;29;20525;-66
2024/01/14 06:08:17;;;;;;;4.93;2.87;;;;;;;-17.69;58.20;99254.13;4938231;29;20070;-67
2024/01/14 06:11:03;;;;;;;5.30;2.90;;;;;;;-18.09;58.00;99176.75;4921621;29;20036;-69
2024/01/14 06:13:30;;;;;;;9.40;3.90;;;;;;;-17.64;57.97;99253.81;4914616;29;20072;-67
2024/01/14 06:16:00;;;;;;;6.53;2.93;;;;;;;-17.75;58.40;99241.97;4921574;29;20047;-66
2024/01/14 06:18:28;;;;;;;7.28;3.65;;;;;;;-17.65;57.85;99238.78;4917334;29;20410;-66
2024/01/14 06:21:00;;;;;;;14.10;4.80;;;;;;;-17.78;58.65;99196.97;4919786;29;20055;-66
2024/01/14 06:23:27;;;;;;;11.47;4.43;;;;;;;-17.65;58.17;99212.28;4911802;29;20046;-68
2024/01/14 06:25:53;;;;;;;8.87;3.10;;;;;;;-17.36;57.46;99256.38;4918117;29;20063;-68
2024/01/14 06:28:27;;;;;;;8.63;3.37;;;;;;;-17.12;58.23;99260.22;4917637;29;20039;-68
2024/01/14 06:30:55;;;;;;;6.30;2.73;;;;;;;-16.71;59.58;99272.16;4930331;29;20043;-68
2024/01/14 06:33:27;;;;;;;5.20;2.60;;;;;;;-17.03;59.06;99144.81;4899853;29;20415;-69
2024/01/14 06:35:55;;;;;;;;;;;;;;;-16.15;58.79;99262.06;4914789;29;20047;-68
2024/01/14 06:38:29;;;;;;;2.27;1.63;;;;;;;-15.97;58.67;99262.81;4921279;29;19926;-70
2024/01/14 06:40:55;;;;;;;6.63;2.83;;;;;;;-16.34;58.20;99201.38;4915172;29;20432;-67
2024/01/14 06:43:21;;;;;;;14.03;3.40;;;;;;;-16.46;57.61;99208.66;4892354;29;20404;-70
2024/01/14 06:45:50;;;;;;;6.13;2.80;;;;;;;-16.28;58.28;99231.84;4915386;29;20048;-72
2024/01/14 06:48:19;;;;;;;7.10;2.80;;;;;;;-16.09;58.28;99251.75;4914057;29;20040;-69
2024/01/14 06:50:45;;;;;;;8.23;2.73;;;;;;;-16.13;59.32;99208.25;4912046;29;20112;-70
2024/01/14 06:53:28;;;;;;;9.27;3.47;;;;;;;-16.32;57.54;99140.09;4899260;29;20131;-71
2024/01/14 06:55:54;;;;;;;9.73;4.20;;;;;;;-15.85;57.95;99245.50;4916825;29;20579;-71
2024/01/14 06:58:24;;;;;;;9.20;3.53;;;;;;;-15.82;58.90;99234.91;4913774;29;20054;-73
2024/01/14 07:00:50;;;;;;;9.83;3.80;;;;;;;-15.73;57.28;99234.81;4911567;29;20048;-71
2024/01/14 07:03:17;;;;;;;10.87;3.80;;;;;;;-16.40;57.82;99112.03;4899050;29;20044;-71
2024/01/14 07:05:54;;;;;;;10.07;4.40;;;;;;;-16.53;58.94;99067.75;4909659;29;20055;-73
2024/01/14 07:08:21;;;;;;;9.53;4.10;;;;;;;-15.33;58.19;99245.66;4913803;29;20044;-71
2024/01/14 07:10:55;;;;;;;10.13;3.60;;;;;;;-15.61;57.63;99210.94;4913665;29;20045;-68
2024/01/14 07:13:21;;;;;;;8.03;3.30;;;;;;;-16.31;57.00;99142.72;4913549;29;20131;-70
2024/01/14 07:15:47;;;;;;;9.90;4.00;;;;;;;-15.78;57.47;99229.44;4913128;29;20048;-71
2024/01/14 07:18:15;;;;;;;10.23;4.63;;;;;;;-15.83;56.87;99223.16;4912513;29;20054;-67
2024/01/14 07:20:44;;;;;;;10.37;4.73;;;;;;;-15.57;58.93;99209.56;4910218;29;20522;-67
2024/01/14 07:23:13;;;;;;;;;;;;;;;-15.15;59.31;99216.38;4911244;29;20056;-67
2024/01/14 07:25:39;;;;;;;6.37;3.10;;;;;;;-15.25;57.27;99189.78;4895932;29;20290;-69
2024/01/14 07:28:07;;;;;;;8.70;3.87;;;;;;;-15.34;58.17;99139.97;4896066;29;20116;-67
2024/01/14 07:30:36;;;;;;;8.03;3.60;;;;;;;-15.03;58.95;99149.09;4882101;29;20099;-67
2024/01/14 07:33:06;;;;;;;13.03;4.30;;;;;;;-14.51;58.61;99182.38;4904234;29;20076;-66
2024/01/14 07:35:38;;;;;;;11.60;4.15;;;;;;;-15.17;57.79;99063.06;4908143;29;20048;-68
2024/01/14 07:38:12;;;;;;;15.17;4.77;;;;;;;-14.62;57.74;99179.00;4900469;29;20546;-68
2024/01/14 07:40:43;;;;;;;9.07;4.50;;;;;;;-14.56;57.13;99178.66;4905729;29;20040;-67
2024/01/14 07:43:10;;;;;;;10.93;5.00;;;;;;;-14.97;57.30;99164.59;4909379;29;20048;-71
2024/01/14 07:45:36;;;;;;;11.27;4.97;;;;;;;-15.10;57.48;99145.22;4910482;29;20048;-68
2024/01/14 07:48:02;;;;;;;9.10;4.97;;;;;;;-15.15;57.48;99143.97;4913068;29;20123;-68
2024/01/14 07:50:28;;;;;;;8.97;4.53;;;;;;;-14.87;56.83;99191.19;4910470;29;20102;-69
2024/01/14 07:52:54;;;;;;;9.57;4.67;;;;;;;-15.79;57.09;99063.06;4910352;29;20099;-68
2024/01/14 07:55:38;;;;;;;10.63;4.43;;;;;;;-15.50;57.17;99119.50;4913004;29;20072;-69
2024/01/14 07:58:11;;;;;;;12.10;4.73;;;;;;;-15.35;57.96;99087.44;4882565;29;20118;-68
2024/01/14 08:00:38;;;;;;;9.73;4.43;;;;;;;-14.93;57.52;99148.22;4910659;29;20087;-69
2024/01/14 08:03:04;;;;;;;12.10;4.60;;;;;;;-14.98;58.49;99127.88;4908834;29;20047;-68
2024/01/14 08:05:35;;;;;;;14.40;5.07;;;;;;;-14.93;58.60;99069.19;4897806;29;20700;-69
2024/01/14 08:08:04;;;;;;;15.00;5.35;;;;;;;-14.46;57.78;99117.78;4912200;29;20199;-70
2024/01/14 08:10:39;;;;;;;10.77;4.83;;;;;;;-14.49;56.94;99137.53;4912848;29;20111;-66
2024/01/14 08:13:07;;;;;;;15.63;5.70;;;;;;;-14.88;57.69;99072.03;4914233;29;20048;-66
2024/01/14 08:15:34;;;;;;;12.57;4.33;;;;;;;-14.25;57.90;99134.44;4913511;29;20503;-67
2024/01/14 08:18:00;;;;;;;17.80;5.23;;;;;;;-14.07;58.03;99146.63;4898043;29;20391;-65
2024/01/14 08:20:30;;;;;;;11.87;4.77;;;;;;;-14.24;56.98;99117.81;4891413;29;20068;-67
2024/01/14 08:22:55;;;;;;;11.80;5.30;;;;;;;-14.69;57.13;99070.25;4906300;29;20539;-67
2024/01/14 08:25:22;;;;;;;8.50;4.60;;;;;;;-14.81;57.15;99044.31;4895058;29;20050;-68
2024/01/14 08:28:09;;;;;;;10.47;4.70;;;;;;;-14.38;56.94;99110.13;4899145;29;20160;-65
2024/01/14 08:30:38;;;;;;;10.83;5.33;;;;;;;-14.49;57.13;99065.91;4910089;29;20161;-67
2024/01/14 08:33:31;;;;;;;;;;;;;;;-14.21;56.57;99123.06;4902541;29;20059;-75
2024/01/14 08:36:12;;;;;;;10.60;5.03;;;;;;;-14.16;58.05;99113.41;4917326;29;19951;-71
2024/01/14 08:38:38;;;;;;;8.73;4.75;;;;;;;-14.31;57.39;99076.47;4916657;29;20130;-72
2024/01/14 08:41:09;;;;;;;7.00;3.53;;;;;;;-14.10;57.16;99063.88;4913125;29;20063;-69
2024/01/14 08:43:37;;;;;;;14.00;4.90;;;;;;;-14.00;57.59;99063.78;4901776;29;20051;-78
2024/01/14 08:46:33;;;;;;;15.47;5.80;;;;;;;-13.62;57.64;99082.47;4916845;29;20049;-72
2024/01/14 08:49:01;;;;;;;11.13;5.30;;;;;;;-13.79;57.08;99068.69;4901298;29;20040;-73
2024/01/14 08:51:28;;;;;;;8.13;4.40;;;;;;;-14.28;56.84;99041.69;4904569;29;20048;-72
2024/01/14 08:54:00;;;;;;;11.50;5.20;;;;;;;-14.16;56.71;99071.78;4902895;29;20052;-73
2024/01/14 08:56:30;;;;;;;13.03;5.23;;;;;;;-14.06;57.83;99054.94;4916934;29;20044;-79
2024/01/14 08:58:58;;;;;;;12.43;4.77;;;;;;;-13.76;57.54;99068.06;4926151;29;20039;-69
2024/01/14 09:01:27;;;;;;;13.30;5.50;;;;;;;-13.70;56.46;99068.53;4922319;29;20581;-70
2024/01/14 09:04:08;;;;;;;17.47;5.97;;;;;;;-13.39;57.79;99076.66;4911295;29;20048;-73
2024/01/14 09:06:44;;;;;;;11.43;5.40;;;;;;;-13.32;57.68;99068.81;4916949;29;20054;-73
2024/01/14 09:09:11;;;;;;;13.53;5.20;;;;;;;-13.47;57.57;99030.16;4922038;29;20047;-72
2024/01/14 09:12:04;;;;;;;14.60;5.53;;;;;;;-13.08;57.61;99040.44;4925268;29;20044;-69
2024/01/14 09:14:34;;;;;;;11.03;4.87;;;;;;;-13.23;56.78;99023.53;4904933;29;20045;-69
2024/01/14 09:17:04;;;;;;;11.03;4.80;;;;;;;-13.51;56.72;99040.69;4910774;29;20072;-69
2024/01/14 09:19:37;;;;;;;11.83;5.63;;;;;;;-13.16;57.52;99044.91;4926991;29;20547;-68
2024/01/14 09:22:03;;;;;;;8.17;5.43;;;;;;;-13.16;57.71;99004.81;4921619;29;20036;-67
2024/01/14 09:24:29;;;;;;;16.47;5.60;;;;;;;-13.18;57.81;99004.69;4920191;29;20610;-69
2024/01/14 09:27:17;;;;;;;14.90;5.80;;;;;;;-12.93;57.36;99018.13;4921636;29;20048;-69
2024/01/14 09:29:47;;;;;;;12.68;5.53;;;;;;;-13.02;57.10;98991.66;4926174;29;20089;-71
2024/01/14 09:32:13;;;;;;;14.33;6.50;;;;;;;-13.03;57.40;98972.38;4916683;29;20043;-69
2024/01/14 09:34:42;;;;;;;16.43;5.70;;;;;;;-12.94;57.31;99002.22;4925722;29;20040;-72
2024/01/14 09:37:11;;;;;;;16.37;7.10;;;;;;;-12.89;56.64;98997.50;4907742;29;20051;-71
2024/01/14 09:39:39;;;;;;;17.33;7.37;;;;;;;-12.85;57.66;98981.09;4920441;29;20040;-70
2024/01/14 09:42:17;;;;;;;18.80;7.10;;;;;;;-12.78;57.81;98989.13;4918228;29;20298;-70
2024/01/14 09:45:02;;;;;;;17.47;7.23;;;;;;;-12.83;57.07;98916.91;4900807;29;20052;-76
2024/01/14 09:47:44;;;;;;;16.20;5.87;;;;;;;-12.44;57.32;98953.00;4908825;29;20130;-80
2024/01/14 09:50:10;;;;;;;15.70;6.13;;;;;;;-12.73;56.46;98942.72;4911040;29;20040;-69
2024/01/14 09:52:40;;;;;;;17.37;6.37;;;;;;;-13.03;56.22;98944.81;4892977;29;20033;-70
2024/01/14 09:55:09;;;;;;;18.13;5.63;;;;;;;-12.98;56.56;98957.66;4921756;29;20108;-70
2024/01/14 09:57:56;;;;;;;16.43;5.87;;;;;;;-13.28;56.43;98943.81;4921858;29;20052;-70
2024/01/14 10:00:25;;;;;;;15.90;7.23;;;;;;;-12.94;57.25;98954.59;4921789;29;20132;-69
2024/01/14 10:02:51;;;;;;;19.43;7.00;;;;;;;-12.71;57.47;98970.38;4922260;29;20086;-69
2024/01/14 10:05:23;;;;;;;13.80;6.87;;;;;;;-12.59;57.51;98970.34;4924757;29;20044;-69
2024/01/14 10:07:49;;;;;;;17.00;6.37;;;;;;;-12.46;57.44;98957.88;4920061;29;20040;-68
2024/01/14 10:10:15;;;;;;;12.70;6.50;;;;;;;-12.58;57.57;98915.31;4921643;29;20052;-69
2024/01/14 10:12:46;;;;;;;17.07;6.83;;;;;;;-12.28;57.09;98950.75;4915069;29;20040;-68
2024/01/14 10:15:17;;;;;;;13.20;6.63;;;;;;;-12.20;58.04;98913.63;4916244;29;20542;-69
2024/01/14 10:17:48;;;;;;;15.65;6.80;;;;;;;-12.17;57.77;98918.88;4918872;29;20040;-72
2024/01/14 10:20:21;;;;;;;11.73;6.60;;;;;;;-12.31;56.71;98905.41;4916144;29;20135;-75
2024/01/14 10:22:47;;;;;;;19.37;6.17;;;;;;;-12.23;57.48;98910.91;4913227;29;20047;-73
2024/01/14 10:25:14;;;;;;;11.37;5.93;;;;;;;-12.01;58.35;98932.41;4909347;29;20040;-68
2024/01/14 10:27:40;;;;;;;15.80;6.83;;;;;;;-12.08;58.54;98902.69;4922878;29;20226;-71
2024/01/14 10:30:12;;;;;;;15.37;7.30;;;;;;;-11.92;57.57;98917.94;4904647;29;20147;-73
2024/01/14 10:32:38;;;;;;;19.37;8.13;;;;;;;-12.02;57.11;98918.13;4903128;29;20078;-71
2024/01/14 10:35:13;;;;;;;18.97;7.53;;;;;;;-12.00;58.22;98912.47;4904406;29;20068;-72
2024/01/14 10:37:40;;;;;;;15.77;7.83;;;;;;;-12.34;56.98;98856.69;4894584;29;20048;-73
2024/01/14 10:40:12;;;;;;;12.03;6.10;;;;;;;-12.05;56.91;98925.50;4891130;29;20044;-72
2024/01/14 10:42:38;;;;;;;12.63;5.93;;;;;;;-12.24;57.89;98871.56;4903338;29;20127;-71
2024/01/14 10:45:05;;;;;;;19.17;6.57;;;;;;;-12.09;57.17;98874.22;4904405;29;20051;-69
2024/01/14 10:47:33;;;;;;;15.60;6.17;;;;;;;-12.04;57.10;98874.53;4906977;29;20079;-71
2024/01/14 10:50:00;;;;;;;13.87;6.47;;;;;;;-11.84;57.66;98899.25;4904335;29;20047;-73
2024/01/14 10:52:31;;;;;;;14.27;6.63;;;;;;;-11.78;58.06;98890.38;4892281;29;20032;-72
2024/01/14 10:55:03;;;;;;;11.13;5.80;;;;;;;-11.75;57.82;98888.06;4904772;29;20052;-72
2024/01/14 10:57:36;;;;;;;11.43;5.73;;;;;;;-11.52;58.76;98894.56;4893906;29;20078;-70
2024/01/14 11:00:05;;;;;;;15.77;6.60;;;;;;;-11.37;58.36;98890.50;4907633;29;20055;-73
2024/01/14 11:02:33;;;;;;;17.13;6.40;;;;;;;-11.63;57.46;98856.22;4887658;29;20044;-72
2024/01/14 11:05:00;;;;;;;17.30;6.40;;;;;;;-11.55;58.12;98865.09;4906480;29;20100;-73
2024/01/14 11:07:28;;;;;;;14.13;6.40;;;;;;;-11.36;57.72;98856.19;4908556;29;20050;-71
2024/01/14 11:09:55;;;;;;;14.87;6.27;;;;;;;-11.14;58.11;98867.63;4905862;29;20136;-69
2024/01/14 11:12:48;;;;;;;16.57;5.77;;;;;;;-11.10;57.14;98861.97;4905180;29;20064;-68
2024/01/14 11:15:28;;;;;;;15.53;6.63;;;;;;;-11.15;57.25;98860.84;4907473;29;20099;-68
2024/01/14 11:18:09;;;;;;;14.27;6.00;;;;;;;-11.34;57.40;98864.72;4904725;29;20247;-71
2024/01/14 11:20:38;;;;;;;16.93;6.90;;;;;;;-11.40;58.19;98867.72;4904861;29;20079;-76
2024/01/14 11:23:05;;;;;;;15.43;6.87;;;;;;;-11.60;57.95;98826.28;4885131;29;20043;-70
2024/01/14 11:25:32;;;;;;;15.70;6.40;;;;;;;-11.42;58.00;98856.69;4893003;29;20759;-70
2024/01/14 11:28:03;;;;;;;16.40;6.73;;;;;;;-11.43;57.94;98824.81;4906286;29;20047;-66
2024/01/14 11:31:02;;;;;;;16.50;6.97;;;;;;;-11.36;57.34;98856.19;4906388;29;20032;-68
2024/01/14 11:33:46;;;;;;;13.33;5.57;;;;;;;-11.45;57.40;98853.97;4892907;29;20071;-69
2024/01/14 11:36:13;;;;;;;13.93;7.03;;;;;;;-11.79;57.08;98814.19;4903642;29;20060;-68
2024/01/14 11:38:55;;;;;;;15.03;6.73;;;;;;;-11.54;57.44;98841.72;4904440;29;20627;-71
2024/01/14 11:41:30;;;;;;;19.05;7.30;;;;;;;-11.64;57.40;98834.41;4912557;29;20064;-71